sensor_id;sensor_type;location;lat;lon;timestamp;P1;durP1;ratioP1;P2;durP2;ratioP2
63378;SDS011;49509;54.996;73.270;2022-10-15T00:00:32;12.50;;;12.00;;
63378;SDS011;49509;54.996;73.270;2022-10-15T00:03:09;13.75;;;13.00;;
63378;SDS011;49509;54.996;73.270;2022-10-15T00:05:40;9.50;;;9.25;;
63378;SDS011;49509;54.996;73.270;2022-10-15T00:08:17;13.25;;;11.75;;
63378;SDS011;49509;54.996;73.270;2022-10-15T00:10:44;13.00;;;12.75;;
63378;SDS011;49509;54.996;73.270;2022-10-15T00:13:10;16.00;;;12.25;;
63378;SDS011;49509;54.996;73.270;2022-10-15T00:15:37;16.25;;;12.75;;
63378;SDS011;49509;54.996;73.270;2022-10-15T00:18:03;12.00;;;12.00;;
63378;SDS011;49509;54.996;73.270;2022-10-15T00:20:29;12.50;;;10.25;;
63378;SDS011;49509;54.996;73.270;2022-10-15T00:22:56;9.75;;;9.75;;
63378;SDS011;49509;54.996;73.270;2022-10-15T00:25:22;13.25;;;11.00;;
63378;SDS011;49509;54.996;73.270;2022-10-15T00:27:49;11.25;;;10.25;;
63378;SDS011;49509;54.996;73.270;2022-10-15T00:30:17;12.25;;;10.50;;
63378;SDS011;49509;54.996;73.270;2022-10-15T00:32:43;13.50;;;12.75;;
63378;SDS011;49509;54.996;73.270;2022-10-15T00:35:19;14.50;;;12.75;;
63378;SDS011;49509;54.996;73.270;2022-10-15T00:37:46;14.50;;;9.75;;
63378;SDS011;49509;54.996;73.270;2022-10-15T00:40:12;14.25;;;14.25;;
63378;SDS011;49509;54.996;73.270;2022-10-15T00:42:40;12.00;;;12.00;;
63378;SDS011;49509;54.996;73.270;2022-10-15T00:45:10;8.75;;;8.75;;
63378;SDS011;49509;54.996;73.270;2022-10-15T00:47:38;14.25;;;11.50;;
63378;SDS011;49509;54.996;73.270;2022-10-15T00:50:20;12.50;;;9.75;;
63378;SDS011;49509;54.996;73.270;2022-10-15T00:55:34;13.25;;;12.25;;
63378;SDS011;49509;54.996;73.270;2022-10-15T00:58:05;12.25;;;12.25;;
63378;SDS011;49509;54.996;73.270;2022-10-15T01:00:33;15.75;;;14.00;;
63378;SDS011;49509;54.996;73.270;2022-10-15T01:03:00;16.25;;;14.75;;
63378;SDS011;49509;54.996;73.270;2022-10-15T01:05:28;17.75;;;15.50;;
63378;SDS011;49509;54.996;73.270;2022-10-15T01:07:55;25.50;;;23.50;;
63378;SDS011;49509;54.996;73.270;2022-10-15T01:10:22;25.20;;;21.40;;
63378;SDS011;49509;54.996;73.270;2022-10-15T01:16:10;20.50;;;20.00;;
63378;SDS011;49509;54.996;73.270;2022-10-15T01:18:13;23.60;;;18.00;;
63378;SDS011;49509;54.996;73.270;2022-10-15T01:20:50;34.40;;;29.60;;
63378;SDS011;49509;54.996;73.270;2022-10-15T01:28:47;23.80;;;20.80;;
63378;SDS011;49509;54.996;73.270;2022-10-15T01:36:35;32.20;;;22.80;;
63378;SDS011;49509;54.996;73.270;2022-10-15T01:39:08;26.25;;;21.50;;
63378;SDS011;49509;54.996;73.270;2022-10-15T01:41:41;21.80;;;19.40;;
63378;SDS011;49509;54.996;73.270;2022-10-15T01:44:29;18.80;;;17.00;;
63378;SDS011;49509;54.996;73.270;2022-10-15T01:50:27;25.60;;;24.00;;
63378;SDS011;49509;54.996;73.270;2022-10-15T01:52:56;30.80;;;28.00;;
63378;SDS011;49509;54.996;73.270;2022-10-15T01:55:23;25.40;;;24.20;;
63378;SDS011;49509;54.996;73.270;2022-10-15T01:57:51;34.40;;;28.00;;
63378;SDS011;49509;54.996;73.270;2022-10-15T02:00:19;34.00;;;29.80;;
63378;SDS011;49509;54.996;73.270;2022-10-15T02:02:45;38.20;;;33.00;;
63378;SDS011;49509;54.996;73.270;2022-10-15T02:05:16;32.00;;;29.60;;
63378;SDS011;49509;54.996;73.270;2022-10-15T02:08:01;41.60;;;35.20;;
63378;SDS011;49509;54.996;73.270;2022-10-15T02:10:54;27.20;;;23.20;;
63378;SDS011;49509;54.996;73.270;2022-10-15T02:16:25;31.20;;;28.20;;
63378;SDS011;49509;54.996;73.270;2022-10-15T02:21:36;38.50;;;33.00;;
63378;SDS011;49509;54.996;73.270;2022-10-15T02:26:34;34.25;;;28.00;;
63378;SDS011;49509;54.996;73.270;2022-10-15T02:29:07;37.00;;;29.60;;
63378;SDS011;49509;54.996;73.270;2022-10-15T02:31:36;32.50;;;26.75;;
63378;SDS011;49509;54.996;73.270;2022-10-15T02:34:07;32.00;;;29.75;;
63378;SDS011;49509;54.996;73.270;2022-10-15T02:36:37;32.00;;;31.75;;
63378;SDS011;49509;54.996;73.270;2022-10-15T02:39:06;27.75;;;25.25;;
63378;SDS011;49509;54.996;73.270;2022-10-15T02:41:35;34.00;;;30.25;;
63378;SDS011;49509;54.996;73.270;2022-10-15T02:44:02;32.00;;;28.50;;
63378;SDS011;49509;54.996;73.270;2022-10-15T02:46:34;34.00;;;31.50;;
63378;SDS011;49509;54.996;73.270;2022-10-15T02:49:01;33.75;;;27.75;;
63378;SDS011;49509;54.996;73.270;2022-10-15T02:51:31;28.50;;;22.75;;
63378;SDS011;49509;54.996;73.270;2022-10-15T02:53:58;22.75;;;22.25;;
63378;SDS011;49509;54.996;73.270;2022-10-15T02:56:30;26.75;;;24.00;;
63378;SDS011;49509;54.996;73.270;2022-10-15T02:58:57;29.25;;;25.50;;
63378;SDS011;49509;54.996;73.270;2022-10-15T03:01:33;22.75;;;21.00;;
63378;SDS011;49509;54.996;73.270;2022-10-15T03:04:07;26.50;;;23.25;;
63378;SDS011;49509;54.996;73.270;2022-10-15T03:06:41;26.50;;;24.50;;
63378;SDS011;49509;54.996;73.270;2022-10-15T03:09:07;35.00;;;30.20;;
63378;SDS011;49509;54.996;73.270;2022-10-15T03:11:43;24.75;;;24.00;;
63378;SDS011;49509;54.996;73.270;2022-10-15T03:14:15;33.00;;;29.25;;
63378;SDS011;49509;54.996;73.270;2022-10-15T03:16:41;35.00;;;27.50;;
63378;SDS011;49509;54.996;73.270;2022-10-15T03:19:14;13.75;;;10.50;;
63378;SDS011;49509;54.996;73.270;2022-10-15T03:21:47;22.50;;;21.00;;
63378;SDS011;49509;54.996;73.270;2022-10-15T03:24:15;28.00;;;24.25;;
63378;SDS011;49509;54.996;73.270;2022-10-15T03:26:42;23.25;;;22.00;;
63378;SDS011;49509;54.996;73.270;2022-10-15T03:29:08;25.75;;;23.50;;
63378;SDS011;49509;54.996;73.270;2022-10-15T03:31:42;18.75;;;18.25;;
63378;SDS011;49509;54.996;73.270;2022-10-15T03:34:09;38.00;;;34.60;;
63378;SDS011;49509;54.996;73.270;2022-10-15T03:36:36;53.00;;;43.20;;
63378;SDS011;49509;54.996;73.270;2022-10-15T03:39:07;67.60;;;50.00;;
63378;SDS011;49509;54.996;73.270;2022-10-15T03:41:34;40.00;;;33.60;;
63378;SDS011;49509;54.996;73.270;2022-10-15T03:44:01;44.20;;;36.20;;
63378;SDS011;49509;54.996;73.270;2022-10-15T03:46:29;38.00;;;34.00;;
63378;SDS011;49509;54.996;73.270;2022-10-15T03:49:01;30.25;;;29.25;;
63378;SDS011;49509;54.996;73.270;2022-10-15T03:51:34;35.00;;;30.25;;
63378;SDS011;49509;54.996;73.270;2022-10-15T03:54:12;36.25;;;33.00;;
63378;SDS011;49509;54.996;73.270;2022-10-15T03:56:46;34.50;;;30.75;;
63378;SDS011;49509;54.996;73.270;2022-10-15T03:59:23;28.25;;;28.25;;
63378;SDS011;49509;54.996;73.270;2022-10-15T04:02:02;35.75;;;33.25;;
63378;SDS011;49509;54.996;73.270;2022-10-15T04:04:30;33.00;;;29.75;;
63378;SDS011;49509;54.996;73.270;2022-10-15T04:06:56;31.50;;;28.50;;
63378;SDS011;49509;54.996;73.270;2022-10-15T04:09:29;36.50;;;32.25;;
63378;SDS011;49509;54.996;73.270;2022-10-15T04:12:16;33.50;;;33.00;;
63378;SDS011;49509;54.996;73.270;2022-10-15T04:14:42;35.00;;;28.25;;
63378;SDS011;49509;54.996;73.270;2022-10-15T04:17:10;25.50;;;25.50;;
63378;SDS011;49509;54.996;73.270;2022-10-15T04:19:36;36.75;;;33.25;;
63378;SDS011;49509;54.996;73.270;2022-10-15T04:22:04;29.50;;;28.00;;
63378;SDS011;49509;54.996;73.270;2022-10-15T04:24:37;36.00;;;26.25;;
63378;SDS011;49509;54.996;73.270;2022-10-15T04:27:03;37.50;;;31.75;;
63378;SDS011;49509;54.996;73.270;2022-10-15T04:29:30;39.75;;;34.00;;
63378;SDS011;49509;54.996;73.270;2022-10-15T04:32:12;36.00;;;33.50;;
63378;SDS011;49509;54.996;73.270;2022-10-15T04:34:40;41.50;;;34.25;;
63378;SDS011;49509;54.996;73.270;2022-10-15T04:37:07;36.50;;;30.00;;
63378;SDS011;49509;54.996;73.270;2022-10-15T04:39:33;37.25;;;30.50;;
63378;SDS011;49509;54.996;73.270;2022-10-15T04:42:00;37.75;;;33.75;;
63378;SDS011;49509;54.996;73.270;2022-10-15T04:44:29;34.00;;;29.75;;
63378;SDS011;49509;54.996;73.270;2022-10-15T04:47:02;35.50;;;30.25;;
63378;SDS011;49509;54.996;73.270;2022-10-15T04:49:39;45.00;;;35.00;;
63378;SDS011;49509;54.996;73.270;2022-10-15T04:52:26;31.25;;;29.00;;
63378;SDS011;49509;54.996;73.270;2022-10-15T04:54:55;37.75;;;34.00;;
63378;SDS011;49509;54.996;73.270;2022-10-15T04:57:28;46.50;;;36.00;;
63378;SDS011;49509;54.996;73.270;2022-10-15T04:59:54;45.25;;;36.75;;
63378;SDS011;49509;54.996;73.270;2022-10-15T05:02:41;52.25;;;42.00;;
63378;SDS011;49509;54.996;73.270;2022-10-15T05:05:24;45.50;;;36.00;;
63378;SDS011;49509;54.996;73.270;2022-10-15T05:08:05;55.00;;;43.00;;
63378;SDS011;49509;54.996;73.270;2022-10-15T05:10:54;47.50;;;38.00;;
63378;SDS011;49509;54.996;73.270;2022-10-15T05:13:24;46.75;;;37.50;;
63378;SDS011;49509;54.996;73.270;2022-10-15T05:15:51;49.50;;;40.50;;
63378;SDS011;49509;54.996;73.270;2022-10-15T05:18:20;41.00;;;33.75;;
63378;SDS011;49509;54.996;73.270;2022-10-15T05:20:50;39.00;;;33.50;;
63378;SDS011;49509;54.996;73.270;2022-10-15T05:23:19;37.00;;;33.25;;
63378;SDS011;49509;54.996;73.270;2022-10-15T05:25:57;28.50;;;27.25;;
63378;SDS011;49509;54.996;73.270;2022-10-15T05:28:24;32.50;;;28.00;;
63378;SDS011;49509;54.996;73.270;2022-10-15T05:30:51;31.00;;;28.25;;
63378;SDS011;49509;54.996;73.270;2022-10-15T05:33:22;28.75;;;24.25;;
63378;SDS011;49509;54.996;73.270;2022-10-15T05:35:48;36.50;;;31.25;;
63378;SDS011;49509;54.996;73.270;2022-10-15T05:38:15;64.40;;;51.20;;
63378;SDS011;49509;54.996;73.270;2022-10-15T05:40:46;39.00;;;33.25;;
63378;SDS011;49509;54.996;73.270;2022-10-15T05:43:17;34.50;;;30.00;;
63378;SDS011;49509;54.996;73.270;2022-10-15T05:45:43;29.25;;;27.75;;
63378;SDS011;49509;54.996;73.270;2022-10-15T05:48:11;33.25;;;30.00;;
63378;SDS011;49509;54.996;73.270;2022-10-15T05:50:37;30.00;;;29.00;;
63378;SDS011;49509;54.996;73.270;2022-10-15T05:53:08;28.25;;;27.75;;
63378;SDS011;49509;54.996;73.270;2022-10-15T05:55:57;21.50;;;18.75;;
63378;SDS011;49509;54.996;73.270;2022-10-15T05:58:29;22.50;;;20.25;;
63378;SDS011;49509;54.996;73.270;2022-10-15T06:00:59;20.25;;;18.00;;
63378;SDS011;49509;54.996;73.270;2022-10-15T06:03:26;13.00;;;12.25;;
63378;SDS011;49509;54.996;73.270;2022-10-15T06:05:53;14.50;;;13.00;;
63378;SDS011;49509;54.996;73.270;2022-10-15T06:08:20;17.75;;;16.00;;
63378;SDS011;49509;54.996;73.270;2022-10-15T06:10:47;19.75;;;17.00;;
63378;SDS011;49509;54.996;73.270;2022-10-15T06:13:13;17.75;;;15.75;;
63378;SDS011;49509;54.996;73.270;2022-10-15T06:15:43;21.25;;;19.50;;
63378;SDS011;49509;54.996;73.270;2022-10-15T06:18:12;47.75;;;36.00;;
63378;SDS011;49509;54.996;73.270;2022-10-15T06:20:41;49.50;;;41.75;;
63378;SDS011;49509;54.996;73.270;2022-10-15T06:23:08;46.75;;;36.25;;
63378;SDS011;49509;54.996;73.270;2022-10-15T06:25:35;38.50;;;33.25;;
63378;SDS011;49509;54.996;73.270;2022-10-15T06:28:02;19.75;;;16.50;;
63378;SDS011;49509;54.996;73.270;2022-10-15T06:30:38;20.50;;;19.50;;
63378;SDS011;49509;54.996;73.270;2022-10-15T06:33:04;22.50;;;21.00;;
63378;SDS011;49509;54.996;73.270;2022-10-15T06:35:31;23.50;;;18.25;;
63378;SDS011;49509;54.996;73.270;2022-10-15T06:38:10;22.25;;;19.50;;
63378;SDS011;49509;54.996;73.270;2022-10-15T06:40:37;27.75;;;24.50;;
63378;SDS011;49509;54.996;73.270;2022-10-15T06:43:08;21.75;;;19.00;;
63378;SDS011;49509;54.996;73.270;2022-10-15T06:45:35;21.50;;;20.50;;
63378;SDS011;49509;54.996;73.270;2022-10-15T06:48:09;19.00;;;17.25;;
63378;SDS011;49509;54.996;73.270;2022-10-15T06:50:41;16.00;;;16.00;;
63378;SDS011;49509;54.996;73.270;2022-10-15T06:53:07;19.00;;;15.50;;
63378;SDS011;49509;54.996;73.270;2022-10-15T06:55:44;12.00;;;11.25;;
63378;SDS011;49509;54.996;73.270;2022-10-15T06:58:10;11.25;;;9.75;;
63378;SDS011;49509;54.996;73.270;2022-10-15T07:00:41;12.50;;;12.50;;
63378;SDS011;49509;54.996;73.270;2022-10-15T07:03:07;13.00;;;13.00;;
63378;SDS011;49509;54.996;73.270;2022-10-15T07:05:44;14.25;;;13.00;;
63378;SDS011;49509;54.996;73.270;2022-10-15T07:08:10;15.75;;;13.50;;
63378;SDS011;49509;54.996;73.270;2022-10-15T07:10:36;14.75;;;13.25;;
63378;SDS011;49509;54.996;73.270;2022-10-15T07:13:02;8.00;;;8.00;;
63378;SDS011;49509;54.996;73.270;2022-10-15T07:15:29;9.00;;;8.40;;
63378;SDS011;49509;54.996;73.270;2022-10-15T07:17:56;9.20;;;8.40;;
63378;SDS011;49509;54.996;73.270;2022-10-15T07:20:27;8.75;;;7.50;;
63378;SDS011;49509;54.996;73.270;2022-10-15T07:23:03;6.60;;;6.00;;
63378;SDS011;49509;54.996;73.270;2022-10-15T07:25:37;9.00;;;8.50;;
63378;SDS011;49509;54.996;73.270;2022-10-15T07:28:04;9.25;;;8.75;;
63378;SDS011;49509;54.996;73.270;2022-10-15T07:30:30;7.75;;;7.50;;
63378;SDS011;49509;54.996;73.270;2022-10-15T07:33:07;7.25;;;7.00;;
63378;SDS011;49509;54.996;73.270;2022-10-15T07:35:33;11.50;;;9.00;;
63378;SDS011;49509;54.996;73.270;2022-10-15T07:38:02;11.00;;;8.50;;
63378;SDS011;49509;54.996;73.270;2022-10-15T07:40:28;34.25;;;31.50;;
63378;SDS011;49509;54.996;73.270;2022-10-15T07:42:55;12.25;;;11.25;;
63378;SDS011;49509;54.996;73.270;2022-10-15T07:45:26;11.75;;;11.75;;
63378;SDS011;49509;54.996;73.270;2022-10-15T07:47:52;14.00;;;11.25;;
63378;SDS011;49509;54.996;73.270;2022-10-15T07:50:28;15.50;;;14.50;;
63378;SDS011;49509;54.996;73.270;2022-10-15T07:52:59;13.50;;;12.50;;
63378;SDS011;49509;54.996;73.270;2022-10-15T07:55:25;15.00;;;15.00;;
63378;SDS011;49509;54.996;73.270;2022-10-15T07:57:55;17.50;;;14.50;;
63378;SDS011;49509;54.996;73.270;2022-10-15T08:00:21;21.75;;;21.75;;
63378;SDS011;49509;54.996;73.270;2022-10-15T08:02:47;24.75;;;21.75;;
63378;SDS011;49509;54.996;73.270;2022-10-15T08:05:18;17.75;;;17.25;;
63378;SDS011;49509;54.996;73.270;2022-10-15T08:07:44;25.75;;;21.50;;
63378;SDS011;49509;54.996;73.270;2022-10-15T08:10:11;21.00;;;21.00;;
63378;SDS011;49509;54.996;73.270;2022-10-15T08:12:38;21.75;;;21.00;;
63378;SDS011;49509;54.996;73.270;2022-10-15T08:15:04;22.25;;;21.75;;
63378;SDS011;49509;54.996;73.270;2022-10-15T08:17:31;26.75;;;25.50;;
63378;SDS011;49509;54.996;73.270;2022-10-15T08:19:57;20.75;;;20.75;;
63378;SDS011;49509;54.996;73.270;2022-10-15T08:22:29;19.25;;;19.25;;
63378;SDS011;49509;54.996;73.270;2022-10-15T08:24:58;19.75;;;18.25;;
63378;SDS011;49509;54.996;73.270;2022-10-15T08:27:34;20.75;;;19.50;;
63378;SDS011;49509;54.996;73.270;2022-10-15T08:30:03;14.75;;;14.25;;
63378;SDS011;49509;54.996;73.270;2022-10-15T08:32:32;18.50;;;17.00;;
63378;SDS011;49509;54.996;73.270;2022-10-15T08:34:58;18.00;;;17.25;;
63378;SDS011;49509;54.996;73.270;2022-10-15T08:37:24;19.50;;;17.00;;
63378;SDS011;49509;54.996;73.270;2022-10-15T08:39:57;19.00;;;18.50;;
63378;SDS011;49509;54.996;73.270;2022-10-15T08:42:45;16.75;;;15.75;;
63378;SDS011;49509;54.996;73.270;2022-10-15T08:45:39;32.50;;;29.25;;
63378;SDS011;49509;54.996;73.270;2022-10-15T08:48:13;39.00;;;34.25;;
63378;SDS011;49509;54.996;73.270;2022-10-15T08:53:41;18.00;;;16.75;;
63378;SDS011;49509;54.996;73.270;2022-10-15T08:56:12;16.00;;;15.25;;
63378;SDS011;49509;54.996;73.270;2022-10-15T09:03:45;16.25;;;15.75;;
63378;SDS011;49509;54.996;73.270;2022-10-15T09:06:18;12.00;;;11.25;;
63378;SDS011;49509;54.996;73.270;2022-10-15T09:13:54;15.20;;;14.00;;
63378;SDS011;49509;54.996;73.270;2022-10-15T09:16:24;14.25;;;14.25;;
63378;SDS011;49509;54.996;73.270;2022-10-15T09:18:52;17.50;;;17.00;;
63378;SDS011;49509;54.996;73.270;2022-10-15T09:21:19;15.00;;;13.00;;
63378;SDS011;49509;54.996;73.270;2022-10-15T09:23:47;14.50;;;13.00;;
63378;SDS011;49509;54.996;73.270;2022-10-15T09:31:33;9.80;;;9.80;;
63378;SDS011;49509;54.996;73.270;2022-10-15T09:34:11;5.00;;;5.00;;
63378;SDS011;49509;54.996;73.270;2022-10-15T09:41:53;1.80;;;1.80;;
63378;SDS011;49509;54.996;73.270;2022-10-15T09:44:26;5.25;;;5.25;;
63378;SDS011;49509;54.996;73.270;2022-10-15T09:46:53;5.00;;;4.50;;
63378;SDS011;49509;54.996;73.270;2022-10-15T09:49:23;6.00;;;4.50;;
63378;SDS011;49509;54.996;73.270;2022-10-15T09:51:59;5.00;;;5.00;;
63378;SDS011;49509;54.996;73.270;2022-10-15T09:57:14;5.00;;;4.40;;
63378;SDS011;49509;54.996;73.270;2022-10-15T09:59:52;4.00;;;3.80;;
63378;SDS011;49509;54.996;73.270;2022-10-15T10:02:19;4.75;;;4.75;;
63378;SDS011;49509;54.996;73.270;2022-10-15T10:04:46;6.50;;;6.25;;
63378;SDS011;49509;54.996;73.270;2022-10-15T10:07:27;2.60;;;2.60;;
63378;SDS011;49509;54.996;73.270;2022-10-15T10:09:57;5.75;;;4.75;;
63378;SDS011;49509;54.996;73.270;2022-10-15T10:12:30;3.75;;;3.75;;
63378;SDS011;49509;54.996;73.270;2022-10-15T10:14:58;7.00;;;5.20;;
63378;SDS011;49509;54.996;73.270;2022-10-15T10:17:29;4.40;;;4.40;;
63378;SDS011;49509;54.996;73.270;2022-10-15T10:22:28;5.00;;;5.00;;
63378;SDS011;49509;54.996;73.270;2022-10-15T10:24:54;4.60;;;4.60;;
63378;SDS011;49509;54.996;73.270;2022-10-15T10:27:26;5.00;;;4.00;;
63378;SDS011;49509;54.996;73.270;2022-10-15T10:30:04;5.60;;;5.60;;
63378;SDS011;49509;54.996;73.270;2022-10-15T10:32:32;8.00;;;6.75;;
63378;SDS011;49509;54.996;73.270;2022-10-15T10:35:01;8.00;;;6.60;;
63378;SDS011;49509;54.996;73.270;2022-10-15T10:37:28;6.40;;;6.40;;
63378;SDS011;49509;54.996;73.270;2022-10-15T10:40:05;5.40;;;5.20;;
63378;SDS011;49509;54.996;73.270;2022-10-15T10:42:45;5.40;;;4.20;;
63378;SDS011;49509;54.996;73.270;2022-10-15T10:45:17;5.20;;;5.20;;
63378;SDS011;49509;54.996;73.270;2022-10-15T10:47:44;3.80;;;3.80;;
63378;SDS011;49509;54.996;73.270;2022-10-15T10:50:29;4.40;;;4.40;;
63378;SDS011;49509;54.996;73.270;2022-10-15T10:53:13;2.80;;;2.80;;
63378;SDS011;49509;54.996;73.270;2022-10-15T10:55:42;6.25;;;6.00;;
63378;SDS011;49509;54.996;73.270;2022-10-15T10:58:14;6.00;;;4.50;;
63378;SDS011;49509;54.996;73.270;2022-10-15T11:00:43;32.00;;;29.67;;
63378;SDS011;49509;54.996;73.270;2022-10-15T11:03:22;15.25;;;14.25;;
63378;SDS011;49509;54.996;73.270;2022-10-15T11:08:59;6.00;;;6.00;;
63378;SDS011;49509;54.996;73.270;2022-10-15T11:16:48;11.00;;;9.00;;
63378;SDS011;49509;54.996;73.270;2022-10-15T11:20:04;15.00;;;13.00;;
63378;SDS011;49509;54.996;73.270;2022-10-15T11:22:26;10.25;;;9.75;;
63378;SDS011;49509;54.996;73.270;2022-10-15T11:33:23;10.75;;;8.25;;
63378;SDS011;49509;54.996;73.270;2022-10-15T11:38:43;13.00;;;12.75;;
63378;SDS011;49509;54.996;73.270;2022-10-15T11:43:50;19.25;;;15.75;;
63378;SDS011;49509;54.996;73.270;2022-10-15T11:51:57;32.75;;;29.00;;
63378;SDS011;49509;54.996;73.270;2022-10-15T11:54:42;29.75;;;26.00;;
63378;SDS011;49509;54.996;73.270;2022-10-15T11:57:15;29.00;;;25.50;;
63378;SDS011;49509;54.996;73.270;2022-10-15T11:59:48;20.50;;;19.50;;
63378;SDS011;49509;54.996;73.270;2022-10-15T12:02:22;26.50;;;24.50;;
63378;SDS011;49509;54.996;73.270;2022-10-15T12:05:00;25.75;;;23.50;;
63378;SDS011;49509;54.996;73.270;2022-10-15T12:07:37;26.50;;;24.25;;
63378;SDS011;49509;54.996;73.270;2022-10-15T12:10:16;29.00;;;25.50;;
63378;SDS011;49509;54.996;73.270;2022-10-15T12:15:34;46.25;;;34.75;;
63378;SDS011;49509;54.996;73.270;2022-10-15T12:18:14;40.50;;;34.75;;
63378;SDS011;49509;54.996;73.270;2022-10-15T12:20:44;36.75;;;31.50;;
63378;SDS011;49509;54.996;73.270;2022-10-15T12:23:24;41.00;;;33.75;;
63378;SDS011;49509;54.996;73.270;2022-10-15T12:25:53;48.75;;;39.00;;
63378;SDS011;49509;54.996;73.270;2022-10-15T12:28:23;45.00;;;35.75;;
63378;SDS011;49509;54.996;73.270;2022-10-15T12:31:03;57.75;;;45.25;;
63378;SDS011;49509;54.996;73.270;2022-10-15T12:33:35;53.00;;;42.00;;
63378;SDS011;49509;54.996;73.270;2022-10-15T12:36:07;56.00;;;44.50;;
63378;SDS011;49509;54.996;73.270;2022-10-15T12:38:56;55.50;;;44.50;;
63378;SDS011;49509;54.996;73.270;2022-10-15T12:44:20;56.50;;;44.00;;
63378;SDS011;49509;54.996;73.270;2022-10-15T12:46:53;50.00;;;39.67;;
63378;SDS011;49509;54.996;73.270;2022-10-15T12:51:55;54.25;;;44.00;;
63378;SDS011;49509;54.996;73.270;2022-10-15T12:59:59;57.75;;;46.50;;
63378;SDS011;49509;54.996;73.270;2022-10-15T13:04:55;62.40;;;51.20;;
63378;SDS011;49509;54.996;73.270;2022-10-15T13:07:22;62.80;;;49.40;;
63378;SDS011;49509;54.996;73.270;2022-10-15T13:09:48;64.80;;;50.40;;
63378;SDS011;49509;54.996;73.270;2022-10-15T13:12:26;62.40;;;49.80;;
63378;SDS011;49509;54.996;73.270;2022-10-15T13:14:55;54.00;;;44.00;;
63378;SDS011;49509;54.996;73.270;2022-10-15T13:17:24;55.25;;;44.50;;
63378;SDS011;49509;54.996;73.270;2022-10-15T13:19:55;59.50;;;47.00;;
63378;SDS011;49509;54.996;73.270;2022-10-15T13:22:33;53.50;;;41.50;;
63378;SDS011;49509;54.996;73.270;2022-10-15T13:25:00;52.00;;;39.75;;
63378;SDS011;49509;54.996;73.270;2022-10-15T13:27:35;46.75;;;35.75;;
63378;SDS011;49509;54.996;73.270;2022-10-15T13:32:36;46.25;;;36.75;;
63378;SDS011;49509;54.996;73.270;2022-10-15T13:35:10;40.50;;;33.75;;
63378;SDS011;49509;54.996;73.270;2022-10-15T13:37:37;40.75;;;32.75;;
63378;SDS011;49509;54.996;73.270;2022-10-15T13:40:21;45.00;;;36.00;;
63378;SDS011;49509;54.996;73.270;2022-10-15T13:43:02;45.25;;;34.25;;
63378;SDS011;49509;54.996;73.270;2022-10-15T13:45:36;38.75;;;33.00;;
63378;SDS011;49509;54.996;73.270;2022-10-15T13:48:03;45.00;;;36.25;;
63378;SDS011;49509;54.996;73.270;2022-10-15T13:50:47;50.00;;;41.50;;
63378;SDS011;49509;54.996;73.270;2022-10-15T13:53:27;51.00;;;42.50;;
63378;SDS011;49509;54.996;73.270;2022-10-15T13:56:00;51.75;;;41.00;;
63378;SDS011;49509;54.996;73.270;2022-10-15T13:58:28;58.25;;;46.25;;
63378;SDS011;49509;54.996;73.270;2022-10-15T14:01:05;73.20;;;58.40;;
63378;SDS011;49509;54.996;73.270;2022-10-15T14:03:36;80.60;;;73.20;;
63378;SDS011;49509;54.996;73.270;2022-10-15T14:06:10;83.40;;;73.00;;
63378;SDS011;49509;54.996;73.270;2022-10-15T14:08:37;103.80;;;92.80;;
63378;SDS011;49509;54.996;73.270;2022-10-15T14:11:14;108.20;;;95.80;;
63378;SDS011;49509;54.996;73.270;2022-10-15T14:13:44;91.60;;;85.60;;
63378;SDS011;49509;54.996;73.270;2022-10-15T14:18:41;100.00;;;90.20;;
63378;SDS011;49509;54.996;73.270;2022-10-15T14:21:13;120.00;;;104.80;;
63378;SDS011;49509;54.996;73.270;2022-10-15T14:23:43;113.00;;;99.20;;
63378;SDS011;49509;54.996;73.270;2022-10-15T14:26:22;108.20;;;99.20;;
63378;SDS011;49509;54.996;73.270;2022-10-15T14:28:49;89.00;;;76.80;;
63378;SDS011;49509;54.996;73.270;2022-10-15T14:31:36;110.40;;;103.80;;
63378;SDS011;49509;54.996;73.270;2022-10-15T14:36:51;111.60;;;97.20;;
63378;SDS011;49509;54.996;73.270;2022-10-15T14:39:30;108.60;;;96.20;;
63378;SDS011;49509;54.996;73.270;2022-10-15T14:42:01;110.80;;;101.00;;
63378;SDS011;49509;54.996;73.270;2022-10-15T14:44:41;101.00;;;83.20;;
63378;SDS011;49509;54.996;73.270;2022-10-15T14:47:24;112.20;;;98.60;;
63378;SDS011;49509;54.996;73.270;2022-10-15T14:49:55;94.20;;;88.20;;
63378;SDS011;49509;54.996;73.270;2022-10-15T14:52:24;97.60;;;86.60;;
63378;SDS011;49509;54.996;73.270;2022-10-15T14:55:02;98.00;;;93.80;;
63378;SDS011;49509;54.996;73.270;2022-10-15T14:57:37;81.60;;;76.20;;
63378;SDS011;49509;54.996;73.270;2022-10-15T15:00:53;86.40;;;76.80;;
63378;SDS011;49509;54.996;73.270;2022-10-15T15:02:56;81.40;;;73.20;;
63378;SDS011;49509;54.996;73.270;2022-10-15T15:05:28;104.60;;;96.40;;
63378;SDS011;49509;54.996;73.270;2022-10-15T15:07:55;93.20;;;80.00;;
63378;SDS011;49509;54.996;73.270;2022-10-15T15:10:25;88.00;;;78.40;;
63378;SDS011;49509;54.996;73.270;2022-10-15T15:12:52;86.80;;;80.40;;
63378;SDS011;49509;54.996;73.270;2022-10-15T15:15:29;86.40;;;76.60;;
63378;SDS011;49509;54.996;73.270;2022-10-15T15:17:56;97.20;;;83.40;;
63378;SDS011;49509;54.996;73.270;2022-10-15T15:20:33;81.80;;;74.80;;
63378;SDS011;49509;54.996;73.270;2022-10-15T15:22:59;79.60;;;69.00;;
63378;SDS011;49509;54.996;73.270;2022-10-15T15:25:29;71.40;;;54.40;;
63378;SDS011;49509;54.996;73.270;2022-10-15T15:27:57;77.20;;;68.80;;
63378;SDS011;49509;54.996;73.270;2022-10-15T15:30:24;74.40;;;58.00;;
63378;SDS011;49509;54.996;73.270;2022-10-15T15:32:51;74.00;;;62.00;;
63378;SDS011;49509;54.996;73.270;2022-10-15T15:35:29;72.60;;;55.80;;
63378;SDS011;49509;54.996;73.270;2022-10-15T15:37:57;74.00;;;59.20;;
63378;SDS011;49509;54.996;73.270;2022-10-15T15:40:24;65.20;;;52.20;;
63378;SDS011;49509;54.996;73.270;2022-10-15T15:42:50;65.00;;;51.60;;
63378;SDS011;49509;54.996;73.270;2022-10-15T15:45:18;68.40;;;54.20;;
63378;SDS011;49509;54.996;73.270;2022-10-15T15:47:45;64.20;;;48.60;;
63378;SDS011;49509;54.996;73.270;2022-10-15T15:50:11;70.60;;;53.80;;
63378;SDS011;49509;54.996;73.270;2022-10-15T15:52:38;67.00;;;51.80;;
63378;SDS011;49509;54.996;73.270;2022-10-15T15:55:14;67.40;;;52.20;;
63378;SDS011;49509;54.996;73.270;2022-10-15T15:57:51;63.40;;;49.80;;
63378;SDS011;49509;54.996;73.270;2022-10-15T16:00:17;62.00;;;48.20;;
63378;SDS011;49509;54.996;73.270;2022-10-15T16:02:44;57.80;;;46.40;;
63378;SDS011;49509;54.996;73.270;2022-10-15T16:05:12;48.40;;;41.00;;
63378;SDS011;49509;54.996;73.270;2022-10-15T16:07:39;59.00;;;46.80;;
63378;SDS011;49509;54.996;73.270;2022-10-15T16:10:05;53.20;;;44.80;;
63378;SDS011;49509;54.996;73.270;2022-10-15T16:12:37;62.20;;;48.00;;
63378;SDS011;49509;54.996;73.270;2022-10-15T16:15:04;65.80;;;51.00;;
63378;SDS011;49509;54.996;73.270;2022-10-15T16:17:33;63.40;;;48.80;;
63378;SDS011;49509;54.996;73.270;2022-10-15T16:19:59;57.60;;;46.20;;
63378;SDS011;49509;54.996;73.270;2022-10-15T16:22:29;56.00;;;43.80;;